sensor_id;sensor_type;location;lat;lon;timestamp;P1;durP1;ratioP1;P2;durP2;ratioP2
5674;SDS011;2860;54.284;10.158;2023-01-29T00:01:24;43.38;;;19.55;;
5674;SDS011;2860;54.284;10.158;2023-01-29T00:03:50;40.90;;;19.48;;
5674;SDS011;2860;54.284;10.158;2023-01-29T00:06:15;43.97;;;19.52;;
5674;SDS011;2860;54.284;10.158;2023-01-29T00:08:41;41.90;;;19.05;;
5674;SDS011;2860;54.284;10.158;2023-01-29T00:11:07;45.72;;;17.88;;
5674;SDS011;2860;54.284;10.158;2023-01-29T00:13:33;44.40;;;18.88;;
5674;SDS011;2860;54.284;10.158;2023-01-29T00:15:59;45.38;;;19.90;;
5674;SDS011;2860;54.284;10.158;2023-01-29T00:18:25;36.47;;;17.90;;
5674;SDS011;2860;54.284;10.158;2023-01-29T00:20:51;57.00;;;19.27;;
5674;SDS011;2860;54.284;10.158;2023-01-29T00:23:17;43.90;;;17.83;;
5674;SDS011;2860;54.284;10.158;2023-01-29T00:25:43;32.65;;;18.83;;
5674;SDS011;2860;54.284;10.158;2023-01-29T00:28:09;41.67;;;19.13;;
5674;SDS011;2860;54.284;10.158;2023-01-29T00:30:35;35.83;;;17.75;;
5674;SDS011;2860;54.284;10.158;2023-01-29T00:33:01;47.00;;;19.27;;
5674;SDS011;2860;54.284;10.158;2023-01-29T00:35:28;40.17;;;18.73;;
5674;SDS011;2860;54.284;10.158;2023-01-29T00:37:53;46.17;;;19.02;;
5674;SDS011;2860;54.284;10.158;2023-01-29T00:40:19;40.47;;;18.13;;
5674;SDS011;2860;54.284;10.158;2023-01-29T00:42:46;40.00;;;18.10;;
5674;SDS011;2860;54.284;10.158;2023-01-29T00:45:30;57.08;;;17.60;;
5674;SDS011;2860;54.284;10.158;2023-01-29T00:47:56;51.13;;;19.27;;
5674;SDS011;2860;54.284;10.158;2023-01-29T00:50:21;42.90;;;18.85;;
5674;SDS011;2860;54.284;10.158;2023-01-29T00:52:47;35.38;;;17.30;;
5674;SDS011;2860;54.284;10.158;2023-01-29T00:55:14;41.33;;;17.70;;
5674;SDS011;2860;54.284;10.158;2023-01-29T00:57:39;34.97;;;17.77;;
5674;SDS011;2860;54.284;10.158;2023-01-29T01:00:06;42.38;;;16.40;;
5674;SDS011;2860;54.284;10.158;2023-01-29T01:02:33;32.53;;;15.40;;
5674;SDS011;2860;54.284;10.158;2023-01-29T01:05:17;27.17;;;15.50;;
5674;SDS011;2860;54.284;10.158;2023-01-29T01:07:43;31.25;;;15.48;;
5674;SDS011;2860;54.284;10.158;2023-01-29T01:10:20;27.45;;;15.93;;
5674;SDS011;2860;54.284;10.158;2023-01-29T01:12:57;35.83;;;15.13;;
5674;SDS011;2860;54.284;10.158;2023-01-29T01:15:26;29.35;;;15.50;;
5674;SDS011;2860;54.284;10.158;2023-01-29T01:17:56;38.00;;;16.50;;
5674;SDS011;2860;54.284;10.158;2023-01-29T01:20:24;24.60;;;14.07;;
5674;SDS011;2860;54.284;10.158;2023-01-29T01:22:54;36.78;;;15.93;;
5674;SDS011;2860;54.284;10.158;2023-01-29T01:25:21;33.78;;;16.45;;
5674;SDS011;2860;54.284;10.158;2023-01-29T01:27:50;26.52;;;15.55;;
5674;SDS011;2860;54.284;10.158;2023-01-29T01:30:20;28.50;;;16.52;;
5674;SDS011;2860;54.284;10.158;2023-01-29T01:32:47;28.08;;;15.55;;
5674;SDS011;2860;54.284;10.158;2023-01-29T01:35:12;38.47;;;16.67;;
5674;SDS011;2860;54.284;10.158;2023-01-29T01:37:40;28.55;;;16.38;;
5674;SDS011;2860;54.284;10.158;2023-01-29T01:40:07;28.50;;;16.33;;
5674;SDS011;2860;54.284;10.158;2023-01-29T01:42:46;33.92;;;15.00;;
5674;SDS011;2860;54.284;10.158;2023-01-29T01:45:26;36.50;;;16.35;;
5674;SDS011;2860;54.284;10.158;2023-01-29T01:47:55;33.45;;;15.75;;
5674;SDS011;2860;54.284;10.158;2023-01-29T01:50:36;35.65;;;15.27;;
5674;SDS011;2860;54.284;10.158;2023-01-29T01:53:10;24.90;;;15.35;;
5674;SDS011;2860;54.284;10.158;2023-01-29T01:55:47;29.38;;;15.63;;
5674;SDS011;2860;54.284;10.158;2023-01-29T01:58:23;29.45;;;15.38;;
5674;SDS011;2860;54.284;10.158;2023-01-29T02:01:03;28.05;;;13.85;;
5674;SDS011;2860;54.284;10.158;2023-01-29T02:03:33;25.52;;;14.13;;
5674;SDS011;2860;54.284;10.158;2023-01-29T02:06:20;23.58;;;12.52;;
5674;SDS011;2860;54.284;10.158;2023-01-29T02:09:06;21.75;;;11.82;;
5674;SDS011;2860;54.284;10.158;2023-01-29T02:11:54;23.38;;;10.40;;
5674;SDS011;2860;54.284;10.158;2023-01-29T02:14:19;27.83;;;12.02;;
5674;SDS011;2860;54.284;10.158;2023-01-29T02:16:46;26.38;;;11.93;;
5674;SDS011;2860;54.284;10.158;2023-01-29T02:24:57;29.42;;;12.60;;
5674;SDS011;2860;54.284;10.158;2023-01-29T02:35:59;33.53;;;16.25;;
5674;SDS011;2860;54.284;10.158;2023-01-29T02:41:07;37.60;;;15.23;;
5674;SDS011;2860;54.284;10.158;2023-01-29T02:44:26;31.15;;;13.77;;
5674;SDS011;2860;54.284;10.158;2023-01-29T02:47:16;25.02;;;14.82;;
5674;SDS011;2860;54.284;10.158;2023-01-29T02:52:26;31.45;;;15.05;;
5674;SDS011;2860;54.284;10.158;2023-01-29T02:55:03;27.25;;;14.70;;
5674;SDS011;2860;54.284;10.158;2023-01-29T02:57:36;26.13;;;12.95;;
5674;SDS011;2860;54.284;10.158;2023-01-29T03:00:06;23.85;;;13.93;;
5674;SDS011;2860;54.284;10.158;2023-01-29T03:02:45;22.80;;;11.63;;
5674;SDS011;2860;54.284;10.158;2023-01-29T03:05:20;22.15;;;12.63;;
5674;SDS011;2860;54.284;10.158;2023-01-29T03:07:52;27.70;;;11.65;;
5674;SDS011;2860;54.284;10.158;2023-01-29T03:10:43;23.30;;;11.13;;
5674;SDS011;2860;54.284;10.158;2023-01-29T03:13:32;20.00;;;10.77;;
5674;SDS011;2860;54.284;10.158;2023-01-29T03:16:06;27.25;;;11.68;;
5674;SDS011;2860;54.284;10.158;2023-01-29T03:18:39;22.40;;;12.10;;
5674;SDS011;2860;54.284;10.158;2023-01-29T03:21:13;24.20;;;12.48;;
5674;SDS011;2860;54.284;10.158;2023-01-29T03:24:12;22.90;;;12.18;;
5674;SDS011;2860;54.284;10.158;2023-01-29T03:26:57;29.80;;;13.13;;
5674;SDS011;2860;54.284;10.158;2023-01-29T03:29:47;21.88;;;11.50;;
5674;SDS011;2860;54.284;10.158;2023-01-29T03:32:33;32.88;;;12.50;;
5674;SDS011;2860;54.284;10.158;2023-01-29T03:35:02;23.80;;;12.90;;
5674;SDS011;2860;54.284;10.158;2023-01-29T03:37:32;27.55;;;11.25;;
5674;SDS011;2860;54.284;10.158;2023-01-29T03:40:08;19.88;;;10.95;;
5674;SDS011;2860;54.284;10.158;2023-01-29T03:42:56;20.05;;;10.90;;
5674;SDS011;2860;54.284;10.158;2023-01-29T03:45:34;16.98;;;10.23;;
5674;SDS011;2860;54.284;10.158;2023-01-29T03:53:26;30.40;;;10.13;;
5674;SDS011;2860;54.284;10.158;2023-01-29T03:58:33;22.30;;;9.73;;
5674;SDS011;2860;54.284;10.158;2023-01-29T04:01:19;15.98;;;9.30;;
5674;SDS011;2860;54.284;10.158;2023-01-29T04:04:03;25.08;;;10.20;;
5674;SDS011;2860;54.284;10.158;2023-01-29T04:06:36;23.40;;;11.38;;
5674;SDS011;2860;54.284;10.158;2023-01-29T04:09:11;23.55;;;12.02;;
5674;SDS011;2860;54.284;10.158;2023-01-29T04:11:49;22.90;;;12.63;;
5674;SDS011;2860;54.284;10.158;2023-01-29T04:14:21;30.52;;;12.35;;
5674;SDS011;2860;54.284;10.158;2023-01-29T04:16:47;16.60;;;11.23;;
5674;SDS011;2860;54.284;10.158;2023-01-29T04:19:16;29.33;;;12.70;;
5674;SDS011;2860;54.284;10.158;2023-01-29T04:21:42;17.40;;;12.95;;
5674;SDS011;2860;54.284;10.158;2023-01-29T04:24:08;22.65;;;13.57;;
5674;SDS011;2860;54.284;10.158;2023-01-29T04:31:51;25.67;;;12.80;;
5674;SDS011;2860;54.284;10.158;2023-01-29T04:34:27;26.85;;;13.27;;
5674;SDS011;2860;54.284;10.158;2023-01-29T04:37:14;32.90;;;13.77;;
5674;SDS011;2860;54.284;10.158;2023-01-29T04:39:57;23.33;;;13.95;;
5674;SDS011;2860;54.284;10.158;2023-01-29T04:42:34;22.10;;;12.82;;
5674;SDS011;2860;54.284;10.158;2023-01-29T04:47:49;22.00;;;14.40;;
5674;SDS011;2860;54.284;10.158;2023-01-29T04:50:35;29.27;;;14.25;;
5674;SDS011;2860;54.284;10.158;2023-01-29T04:55:46;32.35;;;13.90;;
5674;SDS011;2860;54.284;10.158;2023-01-29T05:01:06;25.20;;;14.00;;
5674;SDS011;2860;54.284;10.158;2023-01-29T05:03:36;34.47;;;16.60;;
5674;SDS011;2860;54.284;10.158;2023-01-29T05:06:05;27.88;;;15.30;;
5674;SDS011;2860;54.284;10.158;2023-01-29T05:08:33;34.65;;;18.08;;
5674;SDS011;2860;54.284;10.158;2023-01-29T05:11:02;41.83;;;16.05;;
5674;SDS011;2860;54.284;10.158;2023-01-29T05:13:28;51.63;;;18.67;;
5674;SDS011;2860;54.284;10.158;2023-01-29T05:16:01;41.10;;;16.77;;
5674;SDS011;2860;54.284;10.158;2023-01-29T05:18:38;36.75;;;18.00;;
5674;SDS011;2860;54.284;10.158;2023-01-29T05:21:05;29.27;;;17.52;;
5674;SDS011;2860;54.284;10.158;2023-01-29T05:23:32;36.58;;;17.67;;
5674;SDS011;2860;54.284;10.158;2023-01-29T05:25:57;35.58;;;15.75;;
5674;SDS011;2860;54.284;10.158;2023-01-29T05:28:23;31.95;;;16.40;;
5674;SDS011;2860;54.284;10.158;2023-01-29T05:30:49;36.55;;;17.00;;
5674;SDS011;2860;54.284;10.158;2023-01-29T05:33:17;26.08;;;14.98;;
5674;SDS011;2860;54.284;10.158;2023-01-29T05:35:45;32.03;;;16.33;;
5674;SDS011;2860;54.284;10.158;2023-01-29T05:38:11;27.10;;;14.52;;
5674;SDS011;2860;54.284;10.158;2023-01-29T05:40:37;37.85;;;15.20;;
5674;SDS011;2860;54.284;10.158;2023-01-29T05:43:03;28.70;;;15.27;;
5674;SDS011;2860;54.284;10.158;2023-01-29T05:45:29;39.15;;;15.13;;
5674;SDS011;2860;54.284;10.158;2023-01-29T05:47:56;31.80;;;14.75;;
5674;SDS011;2860;54.284;10.158;2023-01-29T05:50:22;28.52;;;14.30;;
5674;SDS011;2860;54.284;10.158;2023-01-29T05:52:48;32.25;;;13.60;;
5674;SDS011;2860;54.284;10.158;2023-01-29T05:55:14;29.90;;;14.75;;
5674;SDS011;2860;54.284;10.158;2023-01-29T05:57:39;22.02;;;12.05;;
5674;SDS011;2860;54.284;10.158;2023-01-29T06:00:05;24.40;;;13.35;;
5674;SDS011;2860;54.284;10.158;2023-01-29T06:02:32;24.42;;;12.70;;
5674;SDS011;2860;54.284;10.158;2023-01-29T06:04:57;21.80;;;12.15;;
5674;SDS011;2860;54.284;10.158;2023-01-29T06:07:23;27.08;;;9.50;;
5674;SDS011;2860;54.284;10.158;2023-01-29T06:09:49;19.83;;;11.05;;
5674;SDS011;2860;54.284;10.158;2023-01-29T06:12:14;18.88;;;9.70;;
5674;SDS011;2860;54.284;10.158;2023-01-29T06:14:39;17.02;;;9.80;;
5674;SDS011;2860;54.284;10.158;2023-01-29T06:17:05;13.98;;;9.10;;
5674;SDS011;2860;54.284;10.158;2023-01-29T06:19:30;20.88;;;9.00;;
5674;SDS011;2860;54.284;10.158;2023-01-29T06:21:56;14.13;;;8.82;;
5674;SDS011;2860;54.284;10.158;2023-01-29T06:24:21;12.20;;;7.97;;
5674;SDS011;2860;54.284;10.158;2023-01-29T06:26:47;8.75;;;7.45;;
5674;SDS011;2860;54.284;10.158;2023-01-29T06:29:12;12.68;;;7.82;;
5674;SDS011;2860;54.284;10.158;2023-01-29T06:31:38;10.18;;;7.47;;
5674;SDS011;2860;54.284;10.158;2023-01-29T06:34:04;7.32;;;6.40;;
5674;SDS011;2860;54.284;10.158;2023-01-29T06:36:31;7.65;;;6.95;;
5674;SDS011;2860;54.284;10.158;2023-01-29T06:38:56;9.18;;;7.03;;
5674;SDS011;2860;54.284;10.158;2023-01-29T06:41:22;7.97;;;6.88;;
5674;SDS011;2860;54.284;10.158;2023-01-29T06:43:49;9.27;;;7.20;;
5674;SDS011;2860;54.284;10.158;2023-01-29T06:46:15;8.68;;;7.57;;
5674;SDS011;2860;54.284;10.158;2023-01-29T06:48:40;8.30;;;7.43;;
5674;SDS011;2860;54.284;10.158;2023-01-29T06:51:07;9.07;;;7.63;;
5674;SDS011;2860;54.284;10.158;2023-01-29T06:53:33;8.60;;;7.38;;
5674;SDS011;2860;54.284;10.158;2023-01-29T06:56:00;10.45;;;6.05;;
5674;SDS011;2860;54.284;10.158;2023-01-29T06:58:25;7.07;;;5.28;;
5674;SDS011;2860;54.284;10.158;2023-01-29T07:00:51;7.63;;;6.22;;
5674;SDS011;2860;54.284;10.158;2023-01-29T07:03:17;8.30;;;7.50;;
5674;SDS011;2860;54.284;10.158;2023-01-29T07:05:42;8.32;;;7.63;;
5674;SDS011;2860;54.284;10.158;2023-01-29T07:08:13;11.18;;;10.05;;
5674;SDS011;2860;54.284;10.158;2023-01-29T07:10:39;17.63;;;12.25;;
5674;SDS011;2860;54.284;10.158;2023-01-29T07:13:04;24.27;;;15.70;;
5674;SDS011;2860;54.284;10.158;2023-01-29T07:15:30;25.38;;;15.73;;
5674;SDS011;2860;54.284;10.158;2023-01-29T07:17:56;25.05;;;15.43;;
5674;SDS011;2860;54.284;10.158;2023-01-29T07:20:24;26.67;;;17.65;;
5674;SDS011;2860;54.284;10.158;2023-01-29T07:22:53;26.95;;;15.35;;
5674;SDS011;2860;54.284;10.158;2023-01-29T07:25:20;24.80;;;15.18;;
5674;SDS011;2860;54.284;10.158;2023-01-29T07:27:46;23.75;;;14.63;;
5674;SDS011;2860;54.284;10.158;2023-01-29T07:30:13;21.63;;;13.25;;
5674;SDS011;2860;54.284;10.158;2023-01-29T07:32:38;20.63;;;12.30;;
5674;SDS011;2860;54.284;10.158;2023-01-29T07:35:04;26.45;;;12.18;;
5674;SDS011;2860;54.284;10.158;2023-01-29T07:37:30;24.80;;;12.40;;
5674;SDS011;2860;54.284;10.158;2023-01-29T07:39:55;19.25;;;11.57;;
5674;SDS011;2860;54.284;10.158;2023-01-29T07:42:21;21.98;;;12.57;;
5674;SDS011;2860;54.284;10.158;2023-01-29T07:44:47;36.28;;;12.90;;
5674;SDS011;2860;54.284;10.158;2023-01-29T07:47:12;23.92;;;12.13;;
5674;SDS011;2860;54.284;10.158;2023-01-29T07:49:38;16.02;;;12.13;;
5674;SDS011;2860;54.284;10.158;2023-01-29T07:52:03;26.25;;;12.60;;
5674;SDS011;2860;54.284;10.158;2023-01-29T07:54:29;16.77;;;11.60;;
5674;SDS011;2860;54.284;10.158;2023-01-29T07:56:55;16.35;;;11.43;;
5674;SDS011;2860;54.284;10.158;2023-01-29T07:59:20;17.13;;;11.70;;
5674;SDS011;2860;54.284;10.158;2023-01-29T08:01:46;21.67;;;13.57;;
5674;SDS011;2860;54.284;10.158;2023-01-29T08:04:11;23.15;;;11.85;;
5674;SDS011;2860;54.284;10.158;2023-01-29T08:06:37;15.10;;;11.80;;
5674;SDS011;2860;54.284;10.158;2023-01-29T08:09:02;18.98;;;11.13;;
5674;SDS011;2860;54.284;10.158;2023-01-29T08:11:28;15.13;;;11.30;;
5674;SDS011;2860;54.284;10.158;2023-01-29T08:13:53;22.15;;;10.38;;
5674;SDS011;2860;54.284;10.158;2023-01-29T08:16:20;20.65;;;10.60;;
5674;SDS011;2860;54.284;10.158;2023-01-29T08:18:46;13.80;;;10.32;;
5674;SDS011;2860;54.284;10.158;2023-01-29T08:21:12;13.63;;;10.73;;
5674;SDS011;2860;54.284;10.158;2023-01-29T08:23:38;16.73;;;10.18;;
5674;SDS011;2860;54.284;10.158;2023-01-29T08:26:04;18.02;;;9.65;;
5674;SDS011;2860;54.284;10.158;2023-01-29T08:28:29;11.27;;;9.00;;
5674;SDS011;2860;54.284;10.158;2023-01-29T08:30:55;22.90;;;10.75;;
5674;SDS011;2860;54.284;10.158;2023-01-29T08:33:21;14.07;;;10.77;;
5674;SDS011;2860;54.284;10.158;2023-01-29T08:35:49;12.93;;;10.50;;
5674;SDS011;2860;54.284;10.158;2023-01-29T08:38:15;15.75;;;10.40;;
5674;SDS011;2860;54.284;10.158;2023-01-29T08:40:41;12.38;;;10.18;;
5674;SDS011;2860;54.284;10.158;2023-01-29T08:43:07;13.10;;;10.20;;
5674;SDS011;2860;54.284;10.158;2023-01-29T08:45:35;16.95;;;10.45;;
5674;SDS011;2860;54.284;10.158;2023-01-29T08:48:03;10.98;;;9.23;;
5674;SDS011;2860;54.284;10.158;2023-01-29T08:50:29;16.58;;;10.88;;
5674;SDS011;2860;54.284;10.158;2023-01-29T08:52:56;16.30;;;10.85;;
5674;SDS011;2860;54.284;10.158;2023-01-29T08:55:23;15.32;;;10.73;;
5674;SDS011;2860;54.284;10.158;2023-01-29T08:57:48;20.58;;;11.57;;
5674;SDS011;2860;54.284;10.158;2023-01-29T09:00:14;19.55;;;11.23;;
5674;SDS011;2860;54.284;10.158;2023-01-29T09:02:40;18.60;;;11.27;;
5674;SDS011;2860;54.284;10.158;2023-01-29T09:05:05;16.02;;;10.82;;
5674;SDS011;2860;54.284;10.158;2023-01-29T09:07:32;14.73;;;10.05;;
5674;SDS011;2860;54.284;10.158;2023-01-29T09:09:57;14.23;;;11.05;;
5674;SDS011;2860;54.284;10.158;2023-01-29T09:12:23;13.15;;;10.57;;
5674;SDS011;2860;54.284;10.158;2023-01-29T09:14:49;16.90;;;11.05;;
5674;SDS011;2860;54.284;10.158;2023-01-29T09:17:14;15.15;;;10.38;;
5674;SDS011;2860;54.284;10.158;2023-01-29T09:19:40;16.38;;;9.95;;
5674;SDS011;2860;54.284;10.158;2023-01-29T09:22:05;14.75;;;10.35;;
5674;SDS011;2860;54.284;10.158;2023-01-29T09:24:31;14.55;;;10.95;;
5674;SDS011;2860;54.284;10.158;2023-01-29T09:26:58;15.82;;;10.48;;
5674;SDS011;2860;54.284;10.158;2023-01-29T09:29:24;16.33;;;11.02;;
5674;SDS011;2860;54.284;10.158;2023-01-29T09:31:50;16.73;;;11.85;;
5674;SDS011;2860;54.284;10.158;2023-01-29T09:34:15;16.65;;;11.93;;
5674;SDS011;2860;54.284;10.158;2023-01-29T09:36:41;21.02;;;13.60;;
5674;SDS011;2860;54.284;10.158;2023-01-29T09:39:07;15.73;;;11.80;;
5674;SDS011;2860;54.284;10.158;2023-01-29T09:41:36;21.55;;;13.30;;
5674;SDS011;2860;54.284;10.158;2023-01-29T09:44:18;23.88;;;12.95;;
5674;SDS011;2860;54.284;10.158;2023-01-29T09:46:56;19.13;;;14.00;;
5674;SDS011;2860;54.284;10.158;2023-01-29T09:49:28;21.30;;;12.98;;
5674;SDS011;2860;54.284;10.158;2023-01-29T09:52:21;20.77;;;12.80;;
5674;SDS011;2860;54.284;10.158;2023-01-29T09:54:58;17.77;;;11.68;;
5674;SDS011;2860;54.284;10.158;2023-01-29T09:57:40;18.55;;;12.93;;
5674;SDS011;2860;54.284;10.158;2023-01-29T10:00:12;17.02;;;10.20;;
5674;SDS011;2860;54.284;10.158;2023-01-29T10:02:53;22.67;;;13.15;;
5674;SDS011;2860;54.284;10.158;2023-01-29T10:05:39;20.17;;;11.07;;
5674;SDS011;2860;54.284;10.158;2023-01-29T10:11:16;15.68;;;12.10;;
5674;SDS011;2860;54.284;10.158;2023-01-29T10:19:58;16.50;;;11.50;;
5674;SDS011;2860;54.284;10.158;2023-01-29T10:25:39;18.17;;;11.30;;
5674;SDS011;2860;54.284;10.158;2023-01-29T10:31:05;15.27;;;10.73;;
5674;SDS011;2860;54.284;10.158;2023-01-29T10:33:46;17.58;;;11.80;;
5674;SDS011;2860;54.284;10.158;2023-01-29T10:36:16;20.75;;;11.88;;
5674;SDS011;2860;54.284;10.158;2023-01-29T10:38:45;22.70;;;12.65;;
5674;SDS011;2860;54.284;10.158;2023-01-29T10:44:05;17.67;;;11.50;;
5674;SDS011;2860;54.284;10.158;2023-01-29T10:52:20;18.98;;;12.10;;
5674;SDS011;2860;54.284;10.158;2023-01-29T10:58:00;20.70;;;12.98;;
5674;SDS011;2860;54.284;10.158;2023-01-29T11:00:34;20.65;;;11.98;;
5674;SDS011;2860;54.284;10.158;2023-01-29T11:03:11;18.80;;;11.98;;
5674;SDS011;2860;54.284;10.158;2023-01-29T11:05:42;22.13;;;13.52;;
5674;SDS011;2860;54.284;10.158;2023-01-29T11:08:17;18.65;;;13.25;;
5674;SDS011;2860;54.284;10.158;2023-01-29T11:10:52;18.88;;;11.35;;
5674;SDS011;2860;54.284;10.158;2023-01-29T11:13:31;19.55;;;12.18;;
5674;SDS011;2860;54.284;10.158;2023-01-29T11:16:03;18.83;;;12.65;;
5674;SDS011;2860;54.284;10.158;2023-01-29T11:18:48;17.98;;;11.90;;
5674;SDS011;2860;54.284;10.158;2023-01-29T11:21:15;18.27;;;10.75;;
5674;SDS011;2860;54.284;10.158;2023-01-29T11:23:41;19.77;;;11.70;;
5674;SDS011;2860;54.284;10.158;2023-01-29T11:26:07;21.17;;;12.77;;
5674;SDS011;2860;54.284;10.158;2023-01-29T11:31:03;16.63;;;10.07;;
5674;SDS011;2860;54.284;10.158;2023-01-29T11:33:43;17.38;;;11.23;;
5674;SDS011;2860;54.284;10.158;2023-01-29T11:36:19;16.73;;;11.02;;
5674;SDS011;2860;54.284;10.158;2023-01-29T11:38:45;23.33;;;11.40;;
5674;SDS011;2860;54.284;10.158;2023-01-29T11:41:14;16.27;;;10.23;;
5674;SDS011;2860;54.284;10.158;2023-01-29T11:43:42;14.27;;;10.18;;
5674;SDS011;2860;54.284;10.158;2023-01-29T11:46:12;15.55;;;10.27;;
5674;SDS011;2860;54.284;10.158;2023-01-29T11:51:09;13.52;;;9.63;;
5674;SDS011;2860;54.284;10.158;2023-01-29T11:53:44;10.75;;;6.95;;
5674;SDS011;2860;54.284;10.158;2023-01-29T11:56:20;17.85;;;11.20;;
5674;SDS011;2860;54.284;10.158;2023-01-29T11:58:50;11.82;;;8.73;;
5674;SDS011;2860;54.284;10.158;2023-01-29T12:01:22;18.48;;;9.77;;
5674;SDS011;2860;54.284;10.158;2023-01-29T12:03:57;16.08;;;9.65;;
5674;SDS011;2860;54.284;10.158;2023-01-29T12:06:23;14.00;;;9.43;;
5674;SDS011;2860;54.284;10.158;2023-01-29T12:08:58;12.63;;;9.15;;
5674;SDS011;2860;54.284;10.158;2023-01-29T12:11:27;18.17;;;10.63;;
5674;SDS011;2860;54.284;10.158;2023-01-29T12:13:53;11.70;;;8.45;;
5674;SDS011;2860;54.284;10.158;2023-01-29T12:16:41;15.18;;;11.38;;
5674;SDS011;2860;54.284;10.158;2023-01-29T12:19:23;21.55;;;10.35;;
5674;SDS011;2860;54.284;10.158;2023-01-29T12:21:56;12.55;;;9.30;;
5674;SDS011;2860;54.284;10.158;2023-01-29T12:24:28;16.35;;;10.82;;
5674;SDS011;2860;54.284;10.158;2023-01-29T12:27:01;13.05;;;10.55;;
5674;SDS011;2860;54.284;10.158;2023-01-29T12:40:13;20.90;;;10.13;;
5674;SDS011;2860;54.284;10.158;2023-01-29T12:42:40;11.23;;;8.73;;
5674;SDS011;2860;54.284;10.158;2023-01-29T12:45:20;17.60;;;12.55;;
5674;SDS011;2860;54.284;10.158;2023-01-29T12:47:53;21.58;;;13.10;;
5674;SDS011;2860;54.284;10.158;2023-01-29T12:50:25;28.15;;;14.77;;
5674;SDS011;2860;54.284;10.158;2023-01-29T12:52:57;25.25;;;15.35;;
5674;SDS011;2860;54.284;10.158;2023-01-29T12:56:01;20.58;;;14.40;;
5674;SDS011;2860;54.284;10.158;2023-01-29T12:58:26;22.10;;;14.15;;
5674;SDS011;2860;54.284;10.158;2023-01-29T13:01:19;22.58;;;15.30;;
5674;SDS011;2860;54.284;10.158;2023-01-29T13:03:54;20.98;;;14.05;;
5674;SDS011;2860;54.284;10.158;2023-01-29T13:06:39;24.40;;;15.02;;
5674;SDS011;2860;54.284;10.158;2023-01-29T13:09:11;25.75;;;14.90;;
5674;SDS011;2860;54.284;10.158;2023-01-29T13:14:21;27.33;;;17.27;;
5674;SDS011;2860;54.284;10.158;2023-01-29T13:17:09;24.27;;;15.50;;
5674;SDS011;2860;54.284;10.158;2023-01-29T13:19:51;23.00;;;15.02;;
5674;SDS011;2860;54.284;10.158;2023-01-29T13:22:22;21.45;;;12.82;;
5674;SDS011;2860;54.284;10.158;2023-01-29T13:24:50;21.80;;;13.60;;
5674;SDS011;2860;54.284;10.158;2023-01-29T13:27:21;14.65;;;12.90;;
5674;SDS011;2860;54.284;10.158;2023-01-29T13:29:52;16.90;;;12.10;;
5674;SDS011;2860;54.284;10.158;2023-01-29T13:32:20;22.33;;;15.77;;
5674;SDS011;2860;54.284;10.158;2023-01-29T13:34:54;19.88;;;14.18;;
5674;SDS011;2860;54.284;10.158;2023-01-29T13:37:26;20.65;;;14.27;;
5674;SDS011;2860;54.284;10.158;2023-01-29T13:39:57;20.63;;;14.60;;
5674;SDS011;2860;54.284;10.158;2023-01-29T13:42:44;19.08;;;11.88;;
5674;SDS011;2860;54.284;10.158;2023-01-29T13:45:21;19.35;;;13.82;;
5674;SDS011;2860;54.284;10.158;2023-01-29T13:50:52;16.60;;;12.77;;
5674;SDS011;2860;54.284;10.158;2023-01-29T13:53:23;17.30;;;12.18;;
5674;SDS011;2860;54.284;10.158;2023-01-29T13:55:51;20.38;;;13.77;;
5674;SDS011;2860;54.284;10.158;2023-01-29T13:58:51;20.75;;;14.48;;
5674;SDS011;2860;54.284;10.158;2023-01-29T14:01:02;21.23;;;14.50;;
5674;SDS011;2860;54.284;10.158;2023-01-29T14:05:57;20.15;;;15.00;;
5674;SDS011;2860;54.284;10.158;2023-01-29T14:13:39;19.45;;;13.85;;
5674;SDS011;2860;54.284;10.158;2023-01-29T14:18:48;25.10;;;15.98;;
5674;SDS011;2860;54.284;10.158;2023-01-29T14:21:26;24.88;;;16.55;;
5674;SDS011;2860;54.284;10.158;2023-01-29T14:23:56;28.15;;;17.63;;
5674;SDS011;2860;54.284;10.158;2023-01-29T14:29:16;27.17;;;17.27;;
5674;SDS011;2860;54.284;10.158;2023-01-29T14:37:01;26.10;;;17.27;;
5674;SDS011;2860;54.284;10.158;2023-01-29T14:39:43;23.90;;;16.60;;
5674;SDS011;2860;54.284;10.158;2023-01-29T14:42:24;27.83;;;17.77;;
5674;SDS011;2860;54.284;10.158;2023-01-29T14:47:18;24.35;;;15.90;;
5674;SDS011;2860;54.284;10.158;2023-01-29T14:49:57;22.95;;;15.70;;
5674;SDS011;2860;54.284;10.158;2023-01-29T14:52:27;25.25;;;17.38;;
5674;SDS011;2860;54.284;10.158;2023-01-29T14:54:59;24.80;;;17.02;;
5674;SDS011;2860;54.284;10.158;2023-01-29T14:57:29;24.67;;;16.52;;
5674;SDS011;2860;54.284;10.158;2023-01-29T14:59:59;27.65;;;17.40;;
5674;SDS011;2860;54.284;10.158;2023-01-29T15:02:30;24.27;;;17.00;;
5674;SDS011;2860;54.284;10.158;2023-01-29T15:05:09;25.50;;;16.85;;
5674;SDS011;2860;54.284;10.158;2023-01-29T15:13:41;22.55;;;15.52;;
5674;SDS011;2860;54.284;10.158;2023-01-29T15:16:13;18.75;;;13.50;;
5674;SDS011;2860;54.284;10.158;2023-01-29T15:18:44;18.90;;;13.07;;
5674;SDS011;2860;54.284;10.158;2023-01-29T15:21:12;21.27;;;15.52;;
5674;SDS011;2860;54.284;10.158;2023-01-29T15:23:41;24.15;;;15.20;;
5674;SDS011;2860;54.284;10.158;2023-01-29T15:26:11;22.52;;;16.08;;
5674;SDS011;2860;54.284;10.158;2023-01-29T15:28:44;24.70;;;16.52;;
5674;SDS011;2860;54.284;10.158;2023-01-29T15:31:22;24.67;;;16.63;;
5674;SDS011;2860;54.284;10.158;2023-01-29T15:33:48;29.98;;;15.98;;
5674;SDS011;2860;54.284;10.158;2023-01-29T15:36:18;28.50;;;16.52;;
5674;SDS011;2860;54.284;10.158;2023-01-29T15:38:47;28.13;;;16.80;;
5674;SDS011;2860;54.284;10.158;2023-01-29T15:41:15;30.63;;;17.52;;
5674;SDS011;2860;54.284;10.158;2023-01-29T15:43:44;30.00;;;17.73;;
5674;SDS011;2860;54.284;10.158;2023-01-29T15:46:23;33.13;;;18.27;;
5674;SDS011;2860;54.284;10.158;2023-01-29T15:48:50;28.45;;;15.40;;
5674;SDS011;2860;54.284;10.158;2023-01-29T15:51:19;24.30;;;16.85;;
5674;SDS011;2860;54.284;10.158;2023-01-29T15:53:54;21.80;;;16.55;;
5674;SDS011;2860;54.284;10.158;2023-01-29T15:56:27;24.73;;;15.85;;
5674;SDS011;2860;54.284;10.158;2023-01-29T15:58:56;32.13;;;17.33;;
5674;SDS011;2860;54.284;10.158;2023-01-29T16:01:25;24.77;;;14.43;;
5674;SDS011;2860;54.284;10.158;2023-01-29T16:03:51;23.27;;;16.45;;
5674;SDS011;2860;54.284;10.158;2023-01-29T16:06:17;28.02;;;19.08;;
5674;SDS011;2860;54.284;10.158;2023-01-29T16:08:45;34.75;;;16.92;;
5674;SDS011;2860;54.284;10.158;2023-01-29T16:11:13;30.25;;;17.05;;
5674;SDS011;2860;54.284;10.158;2023-01-29T16:13:40;26.65;;;17.27;;
5674;SDS011;2860;54.284;10.158;2023-01-29T16:18:39;30.17;;;17.30;;
5674;SDS011;2860;54.284;10.158;2023-01-29T16:21:15;29.55;;;17.40;;
5674;SDS011;2860;54.284;10.158;2023-01-29T16:23:48;25.42;;;16.45;;
5674;SDS011;2860;54.284;10.158;2023-01-29T16:26:36;20.92;;;13.43;;
5674;SDS011;2860;54.284;10.158;2023-01-29T16:29:07;27.20;;;16.50;;
5674;SDS011;2860;54.284;10.158;2023-01-29T16:31:35;23.10;;;14.48;;
5674;SDS011;2860;54.284;10.158;2023-01-29T16:34:09;21.80;;;16.02;;
5674;SDS011;2860;54.284;10.158;2023-01-29T16:36:59;23.38;;;14.98;;
5674;SDS011;2860;54.284;10.158;2023-01-29T16:39:29;20.83;;;14.82;;
5674;SDS011;2860;54.284;10.158;2023-01-29T16:44:39;28.92;;;14.35;;
5674;SDS011;2860;54.284;10.158;2023-01-29T16:47:13;20.13;;;16.38;;
5674;SDS011;2860;54.284;10.158;2023-01-29T16:49:48;27.75;;;16.55;;
5674;SDS011;2860;54.284;10.158;2023-01-29T16:52:26;26.52;;;16.23;;
5674;SDS011;2860;54.284;10.158;2023-01-29T16:54:59;20.83;;;15.93;;
5674;SDS011;2860;54.284;10.158;2023-01-29T16:57:37;25.00;;;15.52;;
5674;SDS011;2860;54.284;10.158;2023-01-29T17:00:12;26.77;;;16.20;;